createdAt,value
2018-05-26T00:02:15.256Z,20.32
2018-05-26T00:04:44.341Z,20.22
2018-05-26T00:07:13.550Z,20.17
2018-05-26T00:09:45.157Z,20.04
2018-05-26T00:12:14.107Z,20.02
2018-05-26T00:14:43.289Z,20.04
2018-05-26T00:17:14.225Z,20.00
2018-05-26T00:19:43.466Z,19.99
2018-05-26T00:22:12.428Z,19.96
2018-05-26T00:24:42.247Z,20.03
2018-05-26T00:27:11.341Z,19.98
2018-05-26T00:29:40.332Z,19.98
2018-05-26T00:32:10.138Z,20.03
2018-05-26T00:34:40.064Z,20.02
2018-05-26T00:37:09.082Z,20.09
2018-05-26T00:39:40.272Z,20.12
2018-05-26T00:42:09.235Z,20.12
2018-05-26T00:44:38.189Z,20.14
2018-05-26T00:47:10.100Z,20.09
2018-05-26T00:49:39.153Z,20.11
2018-05-26T00:52:08.256Z,20.10
2018-05-26T00:54:37.442Z,20.11
2018-05-26T00:57:06.540Z,20.13
2018-05-26T00:59:35.529Z,20.16
2018-05-26T01:04:39.976Z,20.22
2018-05-26T01:07:08.863Z,20.27
2018-05-26T01:09:39.394Z,20.26
2018-05-26T01:12:08.389Z,20.21
2018-05-26T01:14:37.399Z,20.18
2018-05-26T01:17:08.152Z,20.19
2018-05-26T01:19:37.277Z,20.15
2018-05-26T01:22:06.412Z,20.21
2018-05-26T01:24:35.536Z,20.20
2018-05-26T01:27:04.534Z,20.19
2018-05-26T01:29:33.496Z,20.18
2018-05-26T01:32:04.196Z,20.19
2018-05-26T01:34:33.431Z,20.24
2018-05-26T01:37:02.323Z,20.24
2018-05-26T01:39:31.417Z,20.24
2018-05-26T01:42:00.411Z,20.27
2018-05-26T01:44:29.337Z,20.31
2018-05-26T01:46:58.535Z,20.24
2018-05-26T01:49:27.537Z,20.32
2018-05-26T01:51:56.491Z,20.34
2018-05-26T01:54:25.511Z,20.27
2018-05-26T01:56:54.473Z,20.32
2018-05-26T01:59:34.636Z,20.44
2018-05-26T02:02:03.531Z,20.44
2018-05-26T02:04:32.556Z,20.40
2018-05-26T02:07:02.433Z,20.39
2018-05-26T02:09:32.149Z,20.38
2018-05-26T02:12:01.143Z,20.46
2018-05-26T02:14:30.260Z,20.40
2018-05-26T02:16:59.233Z,20.38
2018-05-26T02:19:28.225Z,20.46
2018-05-26T02:21:57.955Z,20.44
2018-05-26T02:24:26.832Z,20.44
2018-05-26T02:26:55.927Z,20.45
2018-05-26T02:29:25.023Z,20.50
2018-05-26T02:31:54.840Z,20.54
2018-05-26T02:34:23.836Z,20.57
2018-05-26T02:36:52.901Z,20.66
2018-05-26T02:39:22.025Z,20.67
2018-05-26T02:41:50.916Z,20.67
2018-05-26T02:44:20.628Z,20.61
2018-05-26T02:46:50.940Z,20.52
2018-05-26T02:49:20.054Z,20.47
2018-05-26T02:51:49.353Z,20.50
2018-05-26T02:54:18.317Z,20.65
2018-05-26T02:56:47.443Z,20.74
2018-05-26T02:59:17.312Z,20.85
2018-05-26T03:01:46.281Z,20.88
2018-05-26T03:04:20.980Z,21.00
2018-05-26T03:06:56.016Z,21.10
2018-05-26T03:09:30.646Z,21.15
2018-05-26T03:12:05.467Z,21.05
2018-05-26T03:14:39.997Z,21.01
2018-05-26T03:17:09.091Z,21.06
2018-05-26T03:19:38.525Z,21.02
2018-05-26T03:22:08.421Z,20.86
2018-05-26T03:24:38.127Z,20.83
2018-05-26T03:27:07.116Z,20.76
2018-05-26T03:32:10.433Z,20.73
2018-05-26T03:34:39.356Z,20.76
2018-05-26T03:37:08.315Z,20.79
2018-05-26T03:39:38.161Z,20.85
2018-05-26T03:42:07.300Z,20.92
2018-05-26T03:47:10.265Z,21.23
2018-05-26T03:49:39.839Z,21.46
2018-05-26T03:52:08.841Z,21.62
2018-05-26T03:54:49.505Z,21.73
2018-05-26T03:57:31.164Z,21.76
2018-05-26T04:00:11.532Z,21.80
2018-05-26T04:02:40.856Z,21.83
2018-05-26T04:05:09.739Z,22.00
2018-05-26T04:07:38.783Z,22.21
2018-05-26T04:10:07.733Z,22.12
2018-05-26T04:12:36.749Z,22.43
2018-05-26T04:15:05.731Z,22.46
2018-05-26T04:17:35.569Z,22.65
2018-05-26T04:20:04.479Z,22.84
2018-05-26T04:22:33.427Z,22.95
2018-05-26T04:25:04.166Z,23.11
2018-05-26T04:27:33.253Z,23.55
2018-05-26T04:30:02.224Z,23.72
2018-05-26T04:32:31.288Z,23.66
2018-05-26T04:35:00.247Z,23.90
2018-05-26T04:37:29.240Z,24.42
2018-05-26T04:39:59.045Z,24.70
2018-05-26T04:42:28.037Z,24.88
2018-05-26T04:44:57.545Z,25.39
2018-05-26T04:47:26.645Z,25.09
2018-05-26T04:49:56.351Z,25.62
2018-05-26T04:52:25.267Z,26.05
2018-05-26T04:54:54.247Z,26.93
2018-05-26T04:57:23.236Z,26.76
2018-05-26T04:59:52.130Z,27.13
2018-05-26T05:02:21.990Z,27.12
2018-05-26T05:04:51.143Z,27.25
2018-05-26T05:07:26.585Z,27.52
2018-05-26T05:09:55.690Z,26.92
2018-05-26T05:12:25.500Z,27.33
2018-05-26T05:17:28.600Z,27.22
2018-05-26T05:19:59.066Z,27.29
2018-05-26T05:25:02.137Z,27.89
2018-05-26T05:27:31.067Z,27.57
2018-05-26T05:30:00.847Z,27.05
2018-05-26T05:32:29.977Z,27.79
2018-05-26T05:34:58.937Z,28.08
2018-05-26T05:37:28.753Z,27.99
2018-05-26T05:39:57.743Z,28.35
2018-05-26T05:42:26.631Z,27.93
2018-05-26T05:44:55.746Z,28.41
2018-05-26T05:47:24.931Z,28.60
2018-05-26T05:49:54.004Z,28.76
2018-05-26T05:52:22.895Z,28.57
2018-05-26T05:54:54.605Z,28.19
2018-05-26T05:57:23.468Z,27.37
2018-05-26T05:59:52.460Z,27.07
2018-05-26T06:02:21.561Z,27.08
2018-05-26T06:04:50.495Z,27.69
2018-05-26T06:07:19.585Z,27.69
2018-05-26T06:09:48.581Z,27.57
2018-05-26T06:12:17.536Z,27.43
2018-05-26T06:14:47.659Z,28.30
2018-05-26T06:17:17.584Z,29.41
2018-05-26T06:19:46.669Z,29.16
2018-05-26T06:22:15.678Z,30.01
2018-05-26T06:27:18.676Z,29.07
2018-05-26T06:29:47.566Z,28.94
2018-05-26T06:32:16.667Z,28.80
2018-05-26T06:34:45.657Z,29.17
2018-05-26T06:37:14.651Z,28.01
2018-05-26T06:39:45.966Z,28.49
2018-05-26T06:42:14.937Z,27.84
2018-05-26T06:44:43.861Z,27.75
2018-05-26T06:47:14.696Z,27.67
2018-05-26T06:49:43.613Z,28.22
2018-05-26T06:52:12.520Z,28.27
2018-05-26T06:54:42.450Z,29.15
2018-05-26T06:57:11.620Z,28.46
2018-05-26T06:59:40.615Z,28.76
2018-05-26T07:02:11.380Z,28.30
2018-05-26T07:04:40.547Z,27.95
2018-05-26T07:07:09.572Z,27.93
2018-05-26T07:09:38.538Z,26.93
2018-05-26T07:12:07.636Z,26.41
2018-05-26T07:14:36.528Z,26.79
2018-05-26T07:17:05.660Z,26.02
2018-05-26T07:19:34.730Z,26.32
2018-05-26T07:22:03.710Z,26.63
2018-05-26T07:27:07.755Z,27.77
2018-05-26T07:29:36.745Z,27.30
2018-05-26T07:34:40.152Z,27.22
2018-05-26T07:37:09.248Z,27.08
2018-05-26T07:39:38.402Z,25.85
2018-05-26T07:42:07.440Z,25.73
2018-05-26T07:44:36.642Z,25.06
2018-05-26T07:47:06.149Z,25.17
2018-05-26T07:49:35.448Z,26.25
2018-05-26T07:52:05.655Z,27.06
2018-05-26T07:54:34.671Z,27.53
2018-05-26T07:57:03.661Z,26.79
2018-05-26T07:59:32.665Z,26.75
2018-05-26T08:02:02.567Z,26.68
2018-05-26T08:04:31.697Z,26.91
2018-05-26T08:07:01.801Z,26.64
2018-05-26T08:09:31.705Z,26.49
2018-05-26T08:12:00.624Z,26.17
2018-05-26T08:14:29.590Z,26.07
2018-05-26T08:16:58.728Z,25.82
2018-05-26T08:19:28.231Z,25.51
2018-05-26T08:21:57.288Z,25.53
2018-05-26T08:24:28.567Z,25.66
2018-05-26T08:26:57.634Z,25.90
2018-05-26T08:29:26.575Z,26.10
2018-05-26T08:31:55.595Z,26.33
2018-05-26T08:34:24.482Z,26.52
2018-05-26T08:36:53.502Z,26.35
2018-05-26T08:39:23.352Z,26.14
2018-05-26T08:41:52.315Z,26.22
2018-05-26T08:44:22.330Z,26.20
2018-05-26T08:46:52.246Z,25.69
2018-05-26T08:49:21.220Z,25.60
2018-05-26T08:51:50.681Z,25.60
2018-05-26T08:54:19.674Z,26.26
2018-05-26T08:56:49.354Z,26.07
2018-05-26T08:59:18.859Z,25.83
2018-05-26T09:01:49.690Z,25.79
2018-05-26T09:04:18.790Z,25.51
2018-05-26T09:06:47.789Z,25.17
2018-05-26T09:09:18.619Z,25.14
2018-05-26T09:11:47.621Z,25.08
2018-05-26T09:14:16.560Z,24.92
2018-05-26T09:16:46.831Z,25.38
2018-05-26T09:19:15.727Z,25.24
2018-05-26T09:21:44.677Z,25.17
2018-05-26T09:24:13.757Z,24.96
2018-05-26T09:26:42.711Z,25.17
2018-05-26T09:29:11.523Z,25.36
2018-05-26T09:34:16.359Z,25.58
2018-05-26T09:36:45.295Z,26.06
2018-05-26T09:39:14.129Z,26.20
2018-05-26T09:41:43.029Z,25.50
2018-05-26T09:44:12.022Z,24.98
2018-05-26T09:46:41.145Z,25.19
2018-05-26T09:49:11.717Z,24.99
2018-05-26T09:51:40.741Z,24.90
2018-05-26T09:54:09.845Z,24.84
2018-05-26T09:56:38.838Z,24.85
2018-05-26T09:59:07.771Z,24.35
2018-05-26T10:01:37.844Z,23.95
2018-05-26T10:04:06.801Z,23.95
2018-05-26T10:06:35.836Z,23.42
2018-05-26T10:09:05.927Z,23.19
2018-05-26T10:11:35.358Z,23.23
2018-05-26T10:14:04.520Z,23.50
2018-05-26T10:16:33.478Z,23.80
2018-05-26T10:19:02.600Z,23.97
2018-05-26T10:21:31.537Z,24.04
2018-05-26T10:24:00.773Z,24.24
2018-05-26T10:26:29.730Z,24.33
2018-05-26T10:28:59.341Z,24.46
2018-05-26T10:31:28.741Z,24.70
2018-05-26T10:33:57.641Z,24.90
2018-05-26T10:36:26.661Z,24.74
2018-05-26T10:38:58.177Z,24.41
2018-05-26T10:41:27.094Z,24.59
2018-05-26T10:43:56.002Z,24.70
2018-05-26T10:49:01.477Z,24.60
2018-05-26T10:51:30.529Z,24.53
2018-05-26T10:54:01.264Z,24.47
2018-05-26T10:56:30.702Z,24.27
2018-05-26T10:58:59.799Z,24.74
2018-05-26T11:01:29.575Z,24.86
2018-05-26T11:03:58.467Z,25.02
2018-05-26T11:06:27.717Z,25.26
2018-05-26T11:08:56.842Z,25.36
2018-05-26T11:11:26.587Z,25.41
2018-05-26T11:13:55.551Z,25.68
2018-05-26T11:16:24.886Z,25.46
2018-05-26T11:18:53.972Z,25.56
2018-05-26T11:21:22.806Z,25.50
2018-05-26T11:23:54.000Z,25.48
2018-05-26T11:26:22.941Z,25.49
2018-05-26T11:28:56.015Z,25.40
2018-05-26T11:31:25.792Z,25.42
2018-05-26T11:33:54.895Z,25.32
2018-05-26T11:36:26.763Z,25.53
2018-05-26T11:38:55.757Z,25.40
2018-05-26T11:41:26.190Z,25.68
2018-05-26T11:43:56.716Z,25.72
2018-05-26T11:46:25.707Z,25.51
2018-05-26T11:48:54.596Z,25.66
2018-05-26T11:51:23.495Z,25.73
2018-05-26T11:53:52.281Z,25.85
2018-05-26T11:56:21.200Z,25.76
2018-05-26T11:58:50.171Z,26.09
2018-05-26T12:01:20.268Z,25.87
2018-05-26T12:03:49.060Z,25.81
2018-05-26T12:06:18.810Z,25.45
2018-05-26T12:08:47.957Z,25.65
2018-05-26T12:11:16.822Z,25.56
2018-05-26T12:13:47.559Z,25.43
2018-05-26T12:16:16.516Z,25.36
2018-05-26T12:18:45.503Z,25.42
2018-05-26T12:21:16.951Z,25.10
2018-05-26T12:23:46.048Z,24.64
2018-05-26T12:26:15.050Z,24.70
2018-05-26T12:28:44.017Z,24.41
2018-05-26T12:31:14.912Z,24.72
2018-05-26T12:33:43.917Z,24.82
2018-05-26T12:36:13.889Z,25.04
2018-05-26T12:38:43.341Z,25.15
2018-05-26T12:41:12.275Z,25.11
2018-05-26T12:43:41.385Z,24.91
2018-05-26T12:46:11.258Z,24.90
2018-05-26T12:48:40.378Z,24.64
2018-05-26T12:51:10.397Z,24.60
2018-05-26T12:53:40.742Z,24.47
2018-05-26T12:56:09.726Z,24.07
2018-05-26T12:58:39.385Z,23.98
2018-05-26T13:01:08.339Z,24.00
2018-05-26T13:03:37.230Z,23.91
2018-05-26T13:06:06.261Z,23.91
2018-05-26T13:08:35.134Z,23.89
2018-05-26T13:11:04.111Z,23.74
2018-05-26T13:13:33.029Z,23.81
2018-05-26T13:16:01.842Z,23.71
2018-05-26T13:18:30.887Z,23.92
2018-05-26T13:21:00.647Z,24.16
2018-05-26T13:23:29.928Z,24.01
2018-05-26T13:25:58.890Z,23.86
2018-05-26T13:28:28.761Z,23.88
2018-05-26T13:30:58.107Z,23.79
2018-05-26T13:33:27.487Z,23.88
2018-05-26T13:35:56.449Z,23.76
2018-05-26T13:38:25.433Z,23.74
2018-05-26T13:40:54.414Z,23.74
2018-05-26T13:43:24.286Z,23.68
2018-05-26T13:45:53.254Z,23.59
2018-05-26T13:48:22.201Z,23.62
2018-05-26T13:50:52.106Z,23.50
2018-05-26T13:53:21.168Z,23.45
2018-05-26T13:55:50.204Z,23.46
2018-05-26T13:58:20.116Z,23.52
2018-05-26T14:00:49.141Z,23.52
2018-05-26T14:03:18.142Z,23.49
2018-05-26T14:05:48.048Z,23.52
2018-05-26T14:08:17.429Z,23.60
2018-05-26T14:10:47.243Z,23.64
2018-05-26T14:13:17.048Z,23.63
2018-05-26T14:15:46.017Z,23.50
2018-05-26T14:18:14.937Z,23.48
2018-05-26T14:20:44.664Z,23.45
2018-05-26T14:23:13.644Z,23.42
2018-05-26T14:25:42.710Z,23.44
2018-05-26T14:28:13.449Z,23.51
2018-05-26T14:30:42.466Z,23.59
2018-05-26T14:33:11.669Z,23.36
2018-05-26T14:35:40.679Z,23.42
2018-05-26T14:38:09.972Z,23.35
2018-05-26T14:40:38.979Z,23.37
2018-05-26T14:43:08.927Z,23.34
2018-05-26T14:45:39.481Z,23.25
2018-05-26T14:48:08.415Z,22.96
2018-05-26T14:50:39.797Z,22.91
2018-05-26T14:53:08.747Z,22.90
2018-05-26T14:55:37.847Z,22.97
2018-05-26T14:58:10.088Z,23.00
2018-05-26T15:00:39.922Z,22.76
2018-05-26T15:03:09.464Z,22.85
2018-05-26T15:05:38.355Z,22.92
2018-05-26T15:08:07.358Z,22.76
2018-05-26T15:10:36.453Z,22.74
2018-05-26T15:13:05.537Z,22.93
2018-05-26T15:15:34.401Z,22.96
2018-05-26T15:18:03.396Z,22.72
2018-05-26T15:20:32.937Z,22.61
2018-05-26T15:23:02.000Z,22.48
2018-05-26T15:25:31.504Z,22.40
2018-05-26T15:28:00.850Z,22.39
2018-05-26T15:30:30.164Z,22.35
2018-05-26T15:32:59.107Z,22.34
2018-05-26T15:35:30.964Z,22.20
2018-05-26T15:38:00.980Z,22.14
2018-05-26T15:40:30.286Z,22.09
2018-05-26T15:43:00.862Z,22.29
2018-05-26T15:45:29.953Z,22.31
2018-05-26T15:47:59.984Z,22.22
2018-05-26T15:50:29.025Z,22.08
2018-05-26T15:52:58.141Z,22.18
2018-05-26T15:55:27.054Z,22.17
2018-05-26T15:57:57.019Z,22.05
2018-05-26T16:00:26.954Z,22.03
2018-05-26T16:02:56.045Z,22.03
2018-05-26T16:05:26.000Z,21.99
2018-05-26T16:08:01.459Z,21.89
2018-05-26T16:10:33.064Z,21.71
2018-05-26T16:13:03.184Z,21.62
2018-05-26T16:15:32.999Z,21.61
2018-05-26T16:18:01.996Z,21.53
2018-05-26T16:20:31.172Z,21.56
2018-05-26T16:23:00.173Z,21.49
2018-05-26T16:25:29.109Z,21.36
2018-05-26T16:27:57.972Z,21.40
2018-05-26T16:30:27.064Z,21.32
2018-05-26T16:32:56.057Z,21.25
2018-05-26T16:35:25.189Z,21.22
2018-05-26T16:37:54.146Z,21.20
2018-05-26T16:40:24.846Z,21.25
2018-05-26T16:42:53.894Z,21.16
2018-05-26T16:45:23.222Z,20.97
2018-05-26T16:47:55.351Z,20.98
2018-05-26T16:50:24.342Z,20.93
2018-05-26T16:52:53.441Z,20.99
2018-05-26T16:55:23.637Z,20.95
2018-05-26T16:57:52.555Z,20.98
2018-05-26T17:00:22.422Z,20.86
2018-05-26T17:02:51.459Z,20.80
2018-05-26T17:05:20.563Z,20.74
2018-05-26T17:07:49.576Z,20.77
2018-05-26T17:10:18.853Z,20.58
2018-05-26T17:12:47.980Z,20.55
2018-05-26T17:15:17.049Z,20.57
2018-05-26T17:20:21.493Z,20.45
2018-05-26T17:22:52.424Z,20.38
2018-05-26T17:25:21.642Z,20.40
2018-05-26T17:27:50.620Z,20.41
2018-05-26T17:30:20.235Z,20.24
2018-05-26T17:32:49.417Z,20.25
2018-05-26T17:35:18.465Z,20.21
2018-05-26T17:37:47.523Z,20.22
2018-05-26T17:42:50.732Z,20.19
2018-05-26T17:45:20.134Z,20.14
2018-05-26T17:47:49.335Z,20.19
2018-05-26T17:50:18.327Z,20.19
2018-05-26T17:52:48.243Z,20.15
2018-05-26T17:57:53.388Z,19.96
2018-05-26T18:00:24.075Z,19.98
2018-05-26T18:02:53.130Z,20.00
2018-05-26T18:05:22.164Z,20.00
2018-05-26T18:07:51.527Z,20.01
2018-05-26T18:10:25.144Z,20.00
2018-05-26T18:12:54.208Z,20.07
2018-05-26T18:15:23.515Z,20.00
2018-05-26T18:17:52.623Z,20.00
2018-05-26T18:20:24.632Z,19.98
2018-05-26T18:25:30.264Z,19.98
2018-05-26T18:28:00.187Z,19.88
2018-05-26T18:30:30.113Z,19.86
2018-05-26T18:32:59.158Z,19.94
2018-05-26T18:35:28.169Z,19.90
2018-05-26T18:40:32.312Z,19.84
2018-05-26T18:43:01.412Z,19.83
2018-05-26T18:45:30.433Z,19.73
2018-05-26T18:47:59.705Z,19.73
2018-05-26T18:50:28.701Z,19.82
2018-05-26T18:52:58.306Z,19.81
2018-05-26T18:55:27.360Z,19.68
2018-05-26T18:57:56.397Z,19.63
2018-05-26T19:00:25.599Z,19.67
2018-05-26T19:02:55.303Z,19.60
2018-05-26T19:05:24.716Z,19.58
2018-05-26T19:07:55.677Z,19.59
2018-05-26T19:10:24.667Z,19.48
2018-05-26T19:12:53.741Z,19.52
2018-05-26T19:15:23.593Z,19.52
2018-05-26T19:17:52.581Z,19.53
2018-05-26T19:20:21.883Z,19.52
2018-05-26T19:25:25.667Z,19.60
2018-05-26T19:27:55.593Z,19.53
2018-05-26T19:30:25.919Z,19.46
2018-05-26T19:32:54.912Z,19.54
2018-05-26T19:35:24.015Z,19.51
2018-05-26T19:38:00.274Z,19.55
2018-05-26T19:40:30.184Z,19.57
2018-05-26T19:42:59.683Z,19.52
2018-05-26T19:45:29.838Z,19.51
2018-05-26T19:48:01.930Z,19.47
2018-05-26T19:53:05.503Z,19.52
2018-05-26T19:55:34.363Z,19.54
2018-05-26T19:58:04.985Z,19.54
2018-05-26T20:00:34.143Z,19.62
2018-05-26T20:03:03.197Z,19.59
2018-05-26T20:05:32.167Z,19.69
2018-05-26T20:08:01.100Z,19.74
2018-05-26T20:10:31.018Z,19.85
2018-05-26T20:13:03.677Z,19.81
2018-05-26T20:15:32.696Z,19.87
2018-05-26T20:18:02.063Z,19.83
2018-05-26T20:20:32.064Z,19.83
2018-05-26T20:23:01.107Z,19.94
2018-05-26T20:25:30.513Z,19.97
2018-05-26T20:27:59.826Z,20.05
2018-05-26T20:30:30.669Z,20.00
2018-05-26T20:32:59.490Z,19.97
2018-05-26T20:35:28.588Z,19.93
2018-05-26T20:37:58.347Z,19.98
2018-05-26T20:40:27.761Z,20.04
2018-05-26T20:42:57.868Z,20.05
2018-05-26T20:45:28.236Z,19.98
2018-05-26T20:47:57.248Z,20.03
2018-05-26T20:50:27.261Z,20.06
2018-05-26T20:52:56.211Z,20.01
2018-05-26T20:55:25.236Z,19.95
2018-05-26T20:57:54.303Z,19.99
2018-05-26T21:00:23.144Z,20.03
2018-05-26T21:02:52.339Z,20.01
2018-05-26T21:05:22.161Z,19.99
2018-05-26T21:07:51.614Z,19.96
2018-05-26T21:10:20.493Z,19.97
2018-05-26T21:12:49.699Z,20.02
2018-05-26T21:15:18.902Z,19.94
2018-05-26T21:17:47.835Z,19.94
2018-05-26T21:22:50.837Z,19.89
2018-05-26T21:25:19.834Z,19.85
2018-05-26T21:27:49.026Z,19.82
2018-05-26T21:30:18.640Z,19.74
2018-05-26T21:32:48.718Z,19.75
2018-05-26T21:35:18.486Z,19.78
2018-05-26T21:37:47.534Z,19.73
2018-05-26T21:40:16.528Z,19.70
2018-05-26T21:42:46.432Z,19.69
2018-05-26T21:45:15.434Z,19.64
2018-05-26T21:47:45.387Z,19.62
2018-05-26T21:50:14.578Z,19.57
2018-05-26T21:52:43.546Z,19.51
2018-05-26T21:55:12.647Z,19.54
2018-05-26T21:57:42.491Z,19.49
2018-05-26T22:00:11.445Z,19.51
2018-05-26T22:02:41.667Z,19.54
2018-05-26T22:05:13.941Z,19.52
2018-05-26T22:07:43.616Z,19.54
2018-05-26T22:10:12.753Z,19.46
2018-05-26T22:12:43.314Z,19.49
2018-05-26T22:15:12.428Z,19.37
2018-05-26T22:17:41.991Z,19.35
2018-05-26T22:20:12.007Z,19.35
2018-05-26T22:22:42.428Z,19.40
2018-05-26T22:25:11.377Z,19.35
2018-05-26T22:27:40.459Z,19.33
2018-05-26T22:30:09.515Z,19.36
2018-05-26T22:32:38.507Z,19.28
2018-05-26T22:35:08.432Z,19.28
2018-05-26T22:37:37.422Z,19.32
2018-05-26T22:40:07.800Z,19.30
2018-05-26T22:42:37.556Z,19.37
2018-05-26T22:45:07.477Z,19.37
2018-05-26T22:47:36.468Z,19.44
2018-05-26T22:50:05.445Z,19.36
2018-05-26T22:52:34.497Z,19.31
2018-05-26T22:55:03.763Z,19.34
2018-05-26T22:57:33.810Z,19.25
2018-05-26T23:00:02.910Z,19.21
2018-05-26T23:02:32.274Z,19.17
2018-05-26T23:05:03.023Z,19.14
2018-05-26T23:07:33.828Z,19.00
2018-05-26T23:10:03.149Z,19.02
2018-05-26T23:12:33.884Z,18.94
2018-05-26T23:15:03.033Z,18.93
2018-05-26T23:17:32.083Z,18.87
2018-05-26T23:20:04.043Z,18.89
2018-05-26T23:22:33.653Z,18.89
2018-05-26T23:25:02.568Z,18.82
2018-05-26T23:32:40.036Z,18.73
2018-05-26T23:35:09.076Z,18.77
2018-05-26T23:37:38.201Z,18.82
2018-05-26T23:40:07.272Z,18.76
2018-05-26T23:42:36.259Z,18.79
2018-05-26T23:45:05.351Z,18.81
2018-05-26T23:47:34.548Z,18.72
2018-05-26T23:50:03.952Z,18.70
2018-05-26T23:52:32.957Z,18.73
2018-05-26T23:55:05.318Z,18.75
2018-05-26T23:57:34.317Z,18.74
